sensor_id;sensor_type;location;lat;lon;timestamp;pressure;altitude;pressure_sealevel;temperature;humidity
42951;BME280;28592;51.064;17.192;2022-07-06T00:01:51;100413.02;;;15.23;100.00
42951;BME280;28592;51.064;17.192;2022-07-06T00:04:41;100407.16;;;15.20;100.00
42951;BME280;28592;51.064;17.192;2022-07-06T00:07:32;100422.48;;;15.18;100.00
42951;BME280;28592;51.064;17.192;2022-07-06T00:10:21;100418.16;;;15.17;100.00
42951;BME280;28592;51.064;17.192;2022-07-06T00:13:14;100405.66;;;15.17;100.00
42951;BME280;28592;51.064;17.192;2022-07-06T00:16:05;100405.82;;;15.16;100.00
42951;BME280;28592;51.064;17.192;2022-07-06T00:18:54;100410.47;;;15.14;100.00
42951;BME280;28592;51.064;17.192;2022-07-06T00:21:44;100415.12;;;15.12;100.00
42951;BME280;28592;51.064;17.192;2022-07-06T00:24:35;100417.14;;;15.10;100.00
42951;BME280;28592;51.064;17.192;2022-07-06T00:27:26;100413.09;;;15.06;100.00
42951;BME280;28592;51.064;17.192;2022-07-06T00:30:17;100413.26;;;15.04;100.00
42951;BME280;28592;51.064;17.192;2022-07-06T00:33:08;100410.27;;;15.07;100.00
42951;BME280;28592;51.064;17.192;2022-07-06T00:35:58;100415.77;;;15.06;100.00
42951;BME280;28592;51.064;17.192;2022-07-06T00:38:47;100413.05;;;14.98;100.00
42951;BME280;28592;51.064;17.192;2022-07-06T00:41:41;100406.05;;;14.97;100.00
42951;BME280;28592;51.064;17.192;2022-07-06T00:44:31;100418.22;;;14.91;100.00
42951;BME280;28592;51.064;17.192;2022-07-06T00:47:22;100418.85;;;14.85;100.00
42951;BME280;28592;51.064;17.192;2022-07-06T00:50:13;100403.98;;;14.83;100.00
42951;BME280;28592;51.064;17.192;2022-07-06T00:53:13;100406.64;;;14.83;100.00
42951;BME280;28592;51.064;17.192;2022-07-06T00:56:04;100408.34;;;14.84;100.00
42951;BME280;28592;51.064;17.192;2022-07-06T00:58:54;100399.33;;;14.85;100.00
42951;BME280;28592;51.064;17.192;2022-07-06T01:01:44;100395.00;;;14.84;100.00
42951;BME280;28592;51.064;17.192;2022-07-06T01:04:39;100398.96;;;14.80;100.00
42951;BME280;28592;51.064;17.192;2022-07-06T01:07:30;100395.32;;;14.81;100.00
42951;BME280;28592;51.064;17.192;2022-07-06T01:10:21;100400.97;;;14.78;100.00
42951;BME280;28592;51.064;17.192;2022-07-06T01:13:11;100404.12;;;14.73;100.00
42951;BME280;28592;51.064;17.192;2022-07-06T01:16:00;100397.94;;;14.73;100.00
42951;BME280;28592;51.064;17.192;2022-07-06T01:18:49;100396.11;;;14.73;100.00
42951;BME280;28592;51.064;17.192;2022-07-06T01:21:39;100400.08;;;14.69;100.00
42951;BME280;28592;51.064;17.192;2022-07-06T01:24:29;100394.90;;;14.68;100.00
42951;BME280;28592;51.064;17.192;2022-07-06T01:27:19;100397.56;;;14.68;100.00
42951;BME280;28592;51.064;17.192;2022-07-06T01:30:18;100393.29;;;14.75;100.00
42951;BME280;28592;51.064;17.192;2022-07-06T01:33:11;100402.42;;;14.72;100.00
42951;BME280;28592;51.064;17.192;2022-07-06T01:36:02;100396.59;;;14.69;100.00
42951;BME280;28592;51.064;17.192;2022-07-06T01:38:54;100397.41;;;14.69;100.00
42951;BME280;28592;51.064;17.192;2022-07-06T01:41:44;100401.93;;;14.69;100.00
42951;BME280;28592;51.064;17.192;2022-07-06T01:44:35;100395.11;;;14.74;100.00
42951;BME280;28592;51.064;17.192;2022-07-06T01:47:25;100392.61;;;14.73;100.00
42951;BME280;28592;51.064;17.192;2022-07-06T01:50:16;100398.09;;;14.71;100.00
42951;BME280;28592;51.064;17.192;2022-07-06T01:53:12;100391.10;;;14.70;100.00
42951;BME280;28592;51.064;17.192;2022-07-06T01:56:01;100392.92;;;14.70;100.00
42951;BME280;28592;51.064;17.192;2022-07-06T01:58:53;100388.75;;;14.67;100.00
42951;BME280;28592;51.064;17.192;2022-07-06T02:01:44;100397.72;;;14.66;100.00
42951;BME280;28592;51.064;17.192;2022-07-06T02:04:37;100390.73;;;14.65;100.00
42951;BME280;28592;51.064;17.192;2022-07-06T02:07:27;100398.57;;;14.67;100.00
42951;BME280;28592;51.064;17.192;2022-07-06T02:10:17;100403.91;;;14.67;100.00
42951;BME280;28592;51.064;17.192;2022-07-06T02:13:07;100398.77;;;14.48;100.00
42951;BME280;28592;51.064;17.192;2022-07-06T02:15:57;100402.34;;;14.56;100.00
42951;BME280;28592;51.064;17.192;2022-07-06T02:18:47;100399.84;;;14.55;100.00
42951;BME280;28592;51.064;17.192;2022-07-06T02:21:37;100410.69;;;14.61;100.00
42951;BME280;28592;51.064;17.192;2022-07-06T02:24:26;100402.84;;;14.60;100.00
42951;BME280;28592;51.064;17.192;2022-07-06T02:27:16;100406.52;;;14.59;100.00
42951;BME280;28592;51.064;17.192;2022-07-06T02:30:07;100408.50;;;14.57;100.00
42951;BME280;28592;51.064;17.192;2022-07-06T02:33:00;100412.16;;;14.56;100.00
42951;BME280;28592;51.064;17.192;2022-07-06T02:35:53;100399.05;;;14.62;100.00
42951;BME280;28592;51.064;17.192;2022-07-06T02:38:41;100394.69;;;14.61;100.00
42951;BME280;28592;51.064;17.192;2022-07-06T02:41:31;100404.01;;;14.57;100.00
42951;BME280;28592;51.064;17.192;2022-07-06T02:44:22;100401.19;;;14.59;100.00
42951;BME280;28592;51.064;17.192;2022-07-06T02:47:27;100399.52;;;14.58;100.00
42951;BME280;28592;51.064;17.192;2022-07-06T02:50:18;100398.14;;;14.54;100.00
42951;BME280;28592;51.064;17.192;2022-07-06T02:53:07;100400.34;;;14.58;100.00
42951;BME280;28592;51.064;17.192;2022-07-06T02:56:01;100402.19;;;14.58;100.00
42951;BME280;28592;51.064;17.192;2022-07-06T02:58:52;100401.34;;;14.57;100.00
42951;BME280;28592;51.064;17.192;2022-07-06T03:01:41;100402.13;;;14.50;100.00
42951;BME280;28592;51.064;17.192;2022-07-06T03:04:31;100401.28;;;14.49;100.00
42951;BME280;28592;51.064;17.192;2022-07-06T03:07:22;100406.42;;;14.43;100.00
42951;BME280;28592;51.064;17.192;2022-07-06T03:10:12;100404.73;;;14.42;100.00
42951;BME280;28592;51.064;17.192;2022-07-06T03:13:01;100392.19;;;14.34;100.00
42951;BME280;28592;51.064;17.192;2022-07-06T03:15:52;100392.94;;;14.44;100.00
42951;BME280;28592;51.064;17.192;2022-07-06T03:18:43;100392.55;;;14.65;100.00
42951;BME280;28592;51.064;17.192;2022-07-06T03:21:33;100400.61;;;14.73;100.00
42951;BME280;28592;51.064;17.192;2022-07-06T03:24:23;100392.83;;;14.87;100.00
42951;BME280;28592;51.064;17.192;2022-07-06T03:27:13;100387.25;;;15.06;100.00
42951;BME280;28592;51.064;17.192;2022-07-06T03:30:06;100390.66;;;15.24;100.00
42951;BME280;28592;51.064;17.192;2022-07-06T03:32:56;100397.13;;;15.14;100.00
42951;BME280;28592;51.064;17.192;2022-07-06T03:35:46;100406.77;;;15.40;100.00
42951;BME280;28592;51.064;17.192;2022-07-06T03:38:37;100408.62;;;15.48;100.00
42951;BME280;28592;51.064;17.192;2022-07-06T03:41:27;100412.97;;;15.65;100.00
42951;BME280;28592;51.064;17.192;2022-07-06T03:44:18;100420.83;;;15.66;100.00
42951;BME280;28592;51.064;17.192;2022-07-06T03:47:11;100420.34;;;15.63;100.00
42951;BME280;28592;51.064;17.192;2022-07-06T03:50:01;100430.70;;;15.66;100.00
42951;BME280;28592;51.064;17.192;2022-07-06T03:52:51;100429.85;;;15.65;100.00
42951;BME280;28592;51.064;17.192;2022-07-06T03:55:40;100460.02;;;15.42;100.00
42951;BME280;28592;51.064;17.192;2022-07-06T03:58:29;100464.37;;;15.51;100.00
42951;BME280;28592;51.064;17.192;2022-07-06T04:04:23;100467.22;;;15.49;100.00
42951;BME280;28592;51.064;17.192;2022-07-06T04:07:26;100473.46;;;15.82;100.00
42951;BME280;28592;51.064;17.192;2022-07-06T04:10:16;100472.31;;;15.93;100.00
42951;BME280;28592;51.064;17.192;2022-07-06T04:13:06;100465.66;;;15.97;100.00
42951;BME280;28592;51.064;17.192;2022-07-06T04:15:54;100461.31;;;16.04;100.00
42951;BME280;28592;51.064;17.192;2022-07-06T04:18:44;100483.70;;;16.11;100.00
42951;BME280;28592;51.064;17.192;2022-07-06T04:21:37;100479.36;;;16.10;100.00
42951;BME280;28592;51.064;17.192;2022-07-06T04:24:29;100481.20;;;16.41;100.00
42951;BME280;28592;51.064;17.192;2022-07-06T04:27:22;100491.27;;;16.47;100.00
42951;BME280;28592;51.064;17.192;2022-07-06T04:30:31;100481.23;;;16.33;100.00
42951;BME280;28592;51.064;17.192;2022-07-06T04:33:23;100487.61;;;16.48;100.00
42951;BME280;28592;51.064;17.192;2022-07-06T04:36:14;100485.91;;;16.47;100.00
42951;BME280;28592;51.064;17.192;2022-07-06T04:39:05;100502.28;;;16.76;100.00
42951;BME280;28592;51.064;17.192;2022-07-06T04:42:01;100502.96;;;16.78;100.00
42951;BME280;28592;51.064;17.192;2022-07-06T04:44:58;100504.79;;;16.78;100.00
42951;BME280;28592;51.064;17.192;2022-07-06T04:47:55;100508.67;;;16.51;100.00
42951;BME280;28592;51.064;17.192;2022-07-06T04:51:02;100538.11;;;15.44;100.00
42951;BME280;28592;51.064;17.192;2022-07-06T04:53:52;100531.11;;;15.43;100.00
42951;BME280;28592;51.064;17.192;2022-07-06T04:56:45;100550.36;;;14.78;100.00
42951;BME280;28592;51.064;17.192;2022-07-06T04:59:41;100567.68;;;14.56;100.00
42951;BME280;28592;51.064;17.192;2022-07-06T05:02:37;100585.06;;;14.43;100.00
42951;BME280;28592;51.064;17.192;2022-07-06T05:05:45;100579.73;;;14.43;100.00
42951;BME280;28592;51.064;17.192;2022-07-06T05:08:48;100607.05;;;14.45;100.00
42951;BME280;28592;51.064;17.192;2022-07-06T05:11:41;100587.95;;;14.04;100.00
42951;BME280;28592;51.064;17.192;2022-07-06T05:14:53;100618.17;;;14.40;100.00
42951;BME280;28592;51.064;17.192;2022-07-06T05:17:44;100617.36;;;14.40;100.00
42951;BME280;28592;51.064;17.192;2022-07-06T05:20:34;100628.69;;;14.42;100.00
42951;BME280;28592;51.064;17.192;2022-07-06T05:23:37;100630.14;;;14.54;100.00
42951;BME280;28592;51.064;17.192;2022-07-06T05:26:43;100633.83;;;14.70;100.00
42951;BME280;28592;51.064;17.192;2022-07-06T05:29:44;100630.20;;;14.97;100.00
42951;BME280;28592;51.064;17.192;2022-07-06T05:32:39;100621.51;;;14.95;100.00
42951;BME280;28592;51.064;17.192;2022-07-06T05:38:37;100605.95;;;15.33;100.00
42951;BME280;28592;51.064;17.192;2022-07-06T05:41:27;100612.46;;;15.56;100.00
42951;BME280;28592;51.064;17.192;2022-07-06T05:44:15;100607.03;;;15.74;100.00
42951;BME280;28592;51.064;17.192;2022-07-06T05:47:09;100596.82;;;15.69;100.00
42951;BME280;28592;51.064;17.192;2022-07-06T05:50:11;100594.31;;;15.68;100.00
42951;BME280;28592;51.064;17.192;2022-07-06T05:53:04;100596.26;;;15.92;100.00
42951;BME280;28592;51.064;17.192;2022-07-06T05:55:58;100591.31;;;16.13;100.00
42951;BME280;28592;51.064;17.192;2022-07-06T05:58:47;100588.70;;;16.29;100.00
42951;BME280;28592;51.064;17.192;2022-07-06T06:01:40;100570.12;;;16.19;100.00
42951;BME280;28592;51.064;17.192;2022-07-06T06:04:30;100559.15;;;16.46;100.00
42951;BME280;28592;51.064;17.192;2022-07-06T06:07:24;100561.86;;;16.62;100.00
42951;BME280;28592;51.064;17.192;2022-07-06T06:10:18;100559.18;;;16.62;100.00
42951;BME280;28592;51.064;17.192;2022-07-06T06:13:39;100570.04;;;16.85;100.00
42951;BME280;28592;51.064;17.192;2022-07-06T06:16:33;100560.15;;;16.93;100.00
42951;BME280;28592;51.064;17.192;2022-07-06T06:19:24;100540.23;;;16.96;100.00
42951;BME280;28592;51.064;17.192;2022-07-06T06:22:13;100527.52;;;16.98;100.00
42951;BME280;28592;51.064;17.192;2022-07-06T06:25:04;100521.66;;;16.94;100.00
42951;BME280;28592;51.064;17.192;2022-07-06T06:27:58;100519.02;;;16.86;100.00
42951;BME280;28592;51.064;17.192;2022-07-06T06:30:51;100521.99;;;16.99;100.00
42951;BME280;28592;51.064;17.192;2022-07-06T06:33:41;100514.64;;;17.01;100.00
42951;BME280;28592;51.064;17.192;2022-07-06T06:36:29;100517.31;;;17.01;100.00
42951;BME280;28592;51.064;17.192;2022-07-06T06:39:26;100525.17;;;17.03;100.00
42951;BME280;28592;51.064;17.192;2022-07-06T06:42:16;100548.42;;;17.10;100.00
42951;BME280;28592;51.064;17.192;2022-07-06T06:45:09;100564.48;;;17.10;100.00
42951;BME280;28592;51.064;17.192;2022-07-06T06:48:02;100598.31;;;16.95;100.00
42951;BME280;28592;51.064;17.192;2022-07-06T06:50:55;100595.63;;;16.71;100.00
42951;BME280;28592;51.064;17.192;2022-07-06T06:53:45;100612.67;;;16.54;100.00
42951;BME280;28592;51.064;17.192;2022-07-06T06:56:41;100615.34;;;16.54;100.00
42951;BME280;28592;51.064;17.192;2022-07-06T06:59:32;100602.30;;;16.51;100.00
42951;BME280;28592;51.064;17.192;2022-07-06T07:02:26;100616.50;;;16.44;100.00
42951;BME280;28592;51.064;17.192;2022-07-06T07:05:16;100618.00;;;16.46;100.00
42951;BME280;28592;51.064;17.192;2022-07-06T07:08:06;100618.59;;;16.32;100.00
42951;BME280;28592;51.064;17.192;2022-07-06T07:11:13;100621.19;;;16.58;100.00
42951;BME280;28592;51.064;17.192;2022-07-06T07:14:04;100612.34;;;16.57;100.00
42951;BME280;28592;51.064;17.192;2022-07-06T07:16:54;100606.67;;;16.68;100.00
42951;BME280;28592;51.064;17.192;2022-07-06T07:19:44;100600.63;;;16.82;100.00
42951;BME280;28592;51.064;17.192;2022-07-06T07:22:34;100615.02;;;17.05;100.00
42951;BME280;28592;51.064;17.192;2022-07-06T07:25:26;100609.66;;;17.21;100.00
42951;BME280;28592;51.064;17.192;2022-07-06T07:28:16;100601.59;;;17.29;100.00
42951;BME280;28592;51.064;17.192;2022-07-06T07:31:09;100599.09;;;17.28;100.00
42951;BME280;28592;51.064;17.192;2022-07-06T07:34:03;100597.42;;;17.35;100.00
42951;BME280;28592;51.064;17.192;2022-07-06T07:37:06;100597.75;;;17.40;100.00
42951;BME280;28592;51.064;17.192;2022-07-06T07:39:59;100596.06;;;17.39;100.00
42951;BME280;28592;51.064;17.192;2022-07-06T07:42:49;100589.39;;;17.27;100.00
42951;BME280;28592;51.064;17.192;2022-07-06T07:45:48;100583.19;;;17.26;100.00
42951;BME280;28592;51.064;17.192;2022-07-06T07:48:38;100585.00;;;17.42;100.00
42951;BME280;28592;51.064;17.192;2022-07-06T07:51:30;100579.64;;;17.42;100.00
42951;BME280;28592;51.064;17.192;2022-07-06T07:54:21;100586.81;;;17.66;100.00
42951;BME280;28592;51.064;17.192;2022-07-06T07:57:18;100583.59;;;17.78;100.00
42951;BME280;28592;51.064;17.192;2022-07-06T08:00:10;100580.06;;;17.78;100.00
42951;BME280;28592;51.064;17.192;2022-07-06T08:03:17;100585.28;;;18.10;100.00
42951;BME280;28592;51.064;17.192;2022-07-06T08:06:10;100586.78;;;18.43;100.00
42951;BME280;28592;51.064;17.192;2022-07-06T08:09:17;100583.25;;;18.42;100.00
42951;BME280;28592;51.064;17.192;2022-07-06T08:12:08;100578.90;;;18.64;100.00
42951;BME280;28592;51.064;17.192;2022-07-06T08:15:04;100592.38;;;18.56;100.00
42951;BME280;28592;51.064;17.192;2022-07-06T08:17:54;100596.02;;;18.85;100.00
42951;BME280;28592;51.064;17.192;2022-07-06T08:20:57;100592.30;;;19.09;100.00
42951;BME280;28592;51.064;17.192;2022-07-06T08:24:04;100590.06;;;19.12;100.00
42951;BME280;28592;51.064;17.192;2022-07-06T08:27:03;100579.42;;;19.19;100.00
42951;BME280;28592;51.064;17.192;2022-07-06T08:29:51;100583.77;;;19.43;100.00
42951;BME280;28592;51.064;17.192;2022-07-06T08:32:46;100574.28;;;19.61;100.00
42951;BME280;28592;51.064;17.192;2022-07-06T08:35:38;100575.31;;;19.60;100.00
42951;BME280;28592;51.064;17.192;2022-07-06T08:38:32;100581.05;;;19.72;100.00
42951;BME280;28592;51.064;17.192;2022-07-06T08:41:26;100583.92;;;19.85;100.00
42951;BME280;28592;51.064;17.192;2022-07-06T08:44:36;100581.77;;;19.95;100.00
42951;BME280;28592;51.064;17.192;2022-07-06T08:47:27;100580.58;;;19.97;100.00
42951;BME280;28592;51.064;17.192;2022-07-06T08:50:18;100579.73;;;19.97;100.00
42951;BME280;28592;51.064;17.192;2022-07-06T08:53:14;100569.89;;;20.18;100.00
42951;BME280;28592;51.064;17.192;2022-07-06T08:56:04;100574.91;;;20.42;100.00
42951;BME280;28592;51.064;17.192;2022-07-06T08:58:54;100575.95;;;20.41;100.00
42951;BME280;28592;51.064;17.192;2022-07-06T09:01:45;100567.02;;;20.41;100.00
42951;BME280;28592;51.064;17.192;2022-07-06T09:04:42;100564.21;;;20.70;100.00
42951;BME280;28592;51.064;17.192;2022-07-06T09:07:35;100562.55;;;20.69;100.00
42951;BME280;28592;51.064;17.192;2022-07-06T09:10:26;100559.54;;;21.00;100.00
42951;BME280;28592;51.064;17.192;2022-07-06T09:13:17;100570.93;;;21.02;98.73
42951;BME280;28592;51.064;17.192;2022-07-06T09:16:12;100564.82;;;21.14;100.00
42951;BME280;28592;51.064;17.192;2022-07-06T09:19:06;100555.30;;;21.18;100.00
42951;BME280;28592;51.064;17.192;2022-07-06T09:22:06;100546.80;;;21.83;99.74
42951;BME280;28592;51.064;17.192;2022-07-06T09:25:11;100552.28;;;21.68;95.02
42951;BME280;28592;51.064;17.192;2022-07-06T09:32:08;100550.94;;;21.79;92.67
42951;BME280;28592;51.064;17.192;2022-07-06T09:34:56;100548.69;;;21.89;91.71
42951;BME280;28592;51.064;17.192;2022-07-06T09:40:57;100551.77;;;22.39;87.80
42951;BME280;28592;51.064;17.192;2022-07-06T09:43:50;100552.16;;;22.43;87.60
42951;BME280;28592;51.064;17.192;2022-07-06T09:46:45;100532.84;;;22.46;86.40
42951;BME280;28592;51.064;17.192;2022-07-06T09:49:39;100540.19;;;22.52;88.57
42951;BME280;28592;51.064;17.192;2022-07-06T09:52:33;100538.87;;;22.35;84.73
42951;BME280;28592;51.064;17.192;2022-07-06T09:55:28;100541.59;;;22.48;85.45
42951;BME280;28592;51.064;17.192;2022-07-06T09:58:40;100538.13;;;22.67;86.78
42951;BME280;28592;51.064;17.192;2022-07-06T10:01:36;100534.96;;;22.50;84.92
42951;BME280;28592;51.064;17.192;2022-07-06T10:04:31;100544.00;;;22.10;85.65
42951;BME280;28592;51.064;17.192;2022-07-06T10:07:33;100536.91;;;22.09;86.12
42951;BME280;28592;51.064;17.192;2022-07-06T10:10:28;100540.20;;;22.91;79.27
42951;BME280;28592;51.064;17.192;2022-07-06T10:13:21;100540.99;;;23.18;76.58
42951;BME280;28592;51.064;17.192;2022-07-06T10:16:17;100543.92;;;22.97;78.26
42951;BME280;28592;51.064;17.192;2022-07-06T10:19:09;100548.10;;;22.73;77.47
42951;BME280;28592;51.064;17.192;2022-07-06T10:22:03;100518.37;;;22.93;77.11
42951;BME280;28592;51.064;17.192;2022-07-06T10:24:55;100531.44;;;23.28;75.00
42951;BME280;28592;51.064;17.192;2022-07-06T10:27:53;100532.48;;;23.34;72.52
42951;BME280;28592;51.064;17.192;2022-07-06T10:30:47;100539.92;;;23.51;71.64
42951;BME280;28592;51.064;17.192;2022-07-06T10:33:39;100526.44;;;23.38;70.30
42951;BME280;28592;51.064;17.192;2022-07-06T10:36:30;100515.63;;;23.38;67.94
42951;BME280;28592;51.064;17.192;2022-07-06T10:39:37;100513.86;;;23.63;70.27
42951;BME280;28592;51.064;17.192;2022-07-06T10:42:46;100518.25;;;23.64;69.55
42951;BME280;28592;51.064;17.192;2022-07-06T10:45:50;100518.42;;;23.69;68.68
42951;BME280;28592;51.064;17.192;2022-07-06T10:48:44;100509.69;;;23.74;64.96
42951;BME280;28592;51.064;17.192;2022-07-06T10:51:43;100521.09;;;24.27;66.46
42951;BME280;28592;51.064;17.192;2022-07-06T10:54:42;100515.20;;;24.36;65.41
42951;BME280;28592;51.064;17.192;2022-07-06T11:00:48;100513.09;;;24.38;66.65
42951;BME280;28592;51.064;17.192;2022-07-06T11:03:46;100504.09;;;25.00;64.45
42951;BME280;28592;51.064;17.192;2022-07-06T11:06:41;100507.86;;;24.99;64.45
42951;BME280;28592;51.064;17.192;2022-07-06T11:09:53;100506.62;;;24.95;60.88
42951;BME280;28592;51.064;17.192;2022-07-06T11:12:46;100503.61;;;24.85;58.89
42951;BME280;28592;51.064;17.192;2022-07-06T11:15:47;100500.72;;;24.80;59.96
42951;BME280;28592;51.064;17.192;2022-07-06T11:18:47;100494.09;;;24.76;59.74
42951;BME280;28592;51.064;17.192;2022-07-06T11:25:02;100516.98;;;24.18;60.90
42951;BME280;28592;51.064;17.192;2022-07-06T11:27:53;100509.20;;;23.83;62.62
42951;BME280;28592;51.064;17.192;2022-07-06T11:30:43;100510.30;;;23.69;62.12
42951;BME280;28592;51.064;17.192;2022-07-06T11:33:37;100520.12;;;23.57;62.99
42951;BME280;28592;51.064;17.192;2022-07-06T11:36:35;100521.44;;;23.22;64.25
42951;BME280;28592;51.064;17.192;2022-07-06T11:39:32;100529.78;;;23.27;66.56
42951;BME280;28592;51.064;17.192;2022-07-06T11:42:31;100527.30;;;23.26;66.59
42951;BME280;28592;51.064;17.192;2022-07-06T11:45:37;100519.39;;;22.98;66.55
42951;BME280;28592;51.064;17.192;2022-07-06T11:48:31;100534.71;;;23.56;67.03
42951;BME280;28592;51.064;17.192;2022-07-06T11:51:22;100526.75;;;23.68;67.36
42951;BME280;28592;51.064;17.192;2022-07-06T11:54:19;100533.55;;;23.07;63.87
42951;BME280;28592;51.064;17.192;2022-07-06T11:57:23;100549.73;;;23.13;63.90
42951;BME280;28592;51.064;17.192;2022-07-06T12:00:23;100549.33;;;22.90;65.75
42951;BME280;28592;51.064;17.192;2022-07-06T12:03:30;100537.27;;;23.06;65.94
42951;BME280;28592;51.064;17.192;2022-07-06T12:06:43;100540.58;;;23.21;68.06
42951;BME280;28592;51.064;17.192;2022-07-06T12:09:39;100541.75;;;23.70;65.79
42951;BME280;28592;51.064;17.192;2022-07-06T12:12:30;100531.35;;;23.67;66.34
42951;BME280;28592;51.064;17.192;2022-07-06T12:15:29;100537.83;;;23.60;60.99
42951;BME280;28592;51.064;17.192;2022-07-06T12:18:18;100535.61;;;23.31;63.22
42951;BME280;28592;51.064;17.192;2022-07-06T12:21:13;100536.00;;;23.15;63.48
42951;BME280;28592;51.064;17.192;2022-07-06T12:24:08;100525.64;;;23.05;64.06
42951;BME280;28592;51.064;17.192;2022-07-06T12:36:14;100509.13;;;24.41;65.44
42951;BME280;28592;51.064;17.192;2022-07-06T12:39:12;100517.11;;;24.67;64.18
42951;BME280;28592;51.064;17.192;2022-07-06T12:42:12;100515.82;;;24.69;61.76
42951;BME280;28592;51.064;17.192;2022-07-06T12:45:07;100524.17;;;24.68;61.71
42951;BME280;28592;51.064;17.192;2022-07-06T12:48:06;100517.97;;;23.79;62.10
42951;BME280;28592;51.064;17.192;2022-07-06T12:51:02;100531.89;;;23.89;61.07
42951;BME280;28592;51.064;17.192;2022-07-06T12:57:08;100515.70;;;23.76;58.23
42951;BME280;28592;51.064;17.192;2022-07-06T13:00:02;100517.97;;;23.79;58.26
42951;BME280;28592;51.064;17.192;2022-07-06T13:02:54;100509.86;;;24.23;60.15
42951;BME280;28592;51.064;17.192;2022-07-06T13:05:53;100512.97;;;24.58;59.69
42951;BME280;28592;51.064;17.192;2022-07-06T13:08:46;100516.36;;;24.78;59.09
42951;BME280;28592;51.064;17.192;2022-07-06T13:11:36;100514.98;;;24.69;62.34
42951;BME280;28592;51.064;17.192;2022-07-06T13:14:27;100523.41;;;24.54;71.34
42951;BME280;28592;51.064;17.192;2022-07-06T13:17:21;100522.58;;;24.54;71.40
42951;BME280;28592;51.064;17.192;2022-07-06T13:20:12;100529.63;;;23.86;75.12
42951;BME280;28592;51.064;17.192;2022-07-06T13:23:03;100519.98;;;23.39;78.23
42951;BME280;28592;51.064;17.192;2022-07-06T13:26:00;100517.81;;;23.74;77.94
42951;BME280;28592;51.064;17.192;2022-07-06T13:28:57;100533.77;;;23.88;77.18
42951;BME280;28592;51.064;17.192;2022-07-06T13:31:52;100528.00;;;23.72;77.12
42951;BME280;28592;51.064;17.192;2022-07-06T13:34:39;100527.16;;;23.71;77.10
42951;BME280;28592;51.064;17.192;2022-07-06T13:37:29;100527.27;;;23.19;78.33
42951;BME280;28592;51.064;17.192;2022-07-06T13:40:27;100528.31;;;23.18;78.29
42951;BME280;28592;51.064;17.192;2022-07-06T13:43:18;100524.79;;;23.37;81.29
42951;BME280;28592;51.064;17.192;2022-07-06T13:46:08;100524.05;;;24.81;78.93
42951;BME280;28592;51.064;17.192;2022-07-06T13:49:18;100520.89;;;25.51;75.66
42951;BME280;28592;51.064;17.192;2022-07-06T13:52:09;100517.63;;;26.15;71.05
42951;BME280;28592;51.064;17.192;2022-07-06T13:54:59;100516.80;;;26.14;68.63
42951;BME280;28592;51.064;17.192;2022-07-06T13:57:49;100508.00;;;25.83;70.20
42951;BME280;28592;51.064;17.192;2022-07-06T14:00:39;100503.22;;;25.24;70.12
42951;BME280;28592;51.064;17.192;2022-07-06T14:03:28;100517.55;;;24.26;71.92
42951;BME280;28592;51.064;17.192;2022-07-06T14:06:23;100514.63;;;24.59;73.30
42951;BME280;28592;51.064;17.192;2022-07-06T14:09:17;100528.89;;;24.79;72.49
42951;BME280;28592;51.064;17.192;2022-07-06T14:12:06;100513.06;;;24.76;73.50
42951;BME280;28592;51.064;17.192;2022-07-06T14:14:56;100514.73;;;25.19;73.33
42951;BME280;28592;51.064;17.192;2022-07-06T14:17:51;100516.82;;;25.42;71.72
42951;BME280;28592;51.064;17.192;2022-07-06T14:20:48;100509.70;;;25.23;72.32
42951;BME280;28592;51.064;17.192;2022-07-06T14:23:42;100506.05;;;24.93;73.96
42951;BME280;28592;51.064;17.192;2022-07-06T14:26:47;100502.13;;;25.07;74.82
42951;BME280;28592;51.064;17.192;2022-07-06T14:29:37;100505.42;;;24.66;69.30
42951;BME280;28592;51.064;17.192;2022-07-06T14:32:32;100500.57;;;24.44;69.49
42951;BME280;28592;51.064;17.192;2022-07-06T14:35:24;100500.72;;;24.80;69.55
42951;BME280;28592;51.064;17.192;2022-07-06T14:38:17;100497.23;;;24.97;73.65
42951;BME280;28592;51.064;17.192;2022-07-06T14:41:13;100490.98;;;24.97;73.70
42951;BME280;28592;51.064;17.192;2022-07-06T14:44:06;100493.91;;;24.40;72.57
42951;BME280;28592;51.064;17.192;2022-07-06T14:47:00;100497.30;;;24.91;69.52
42951;BME280;28592;51.064;17.192;2022-07-06T14:49:57;100487.84;;;25.18;70.97
42951;BME280;28592;51.064;17.192;2022-07-06T14:52:49;100481.80;;;25.16;70.92
42951;BME280;28592;51.064;17.192;2022-07-06T14:55:43;100484.33;;;25.71;69.89
42951;BME280;28592;51.064;17.192;2022-07-06T14:58:35;100496.47;;;26.17;68.74
42951;BME280;28592;51.064;17.192;2022-07-06T15:01:27;100499.89;;;26.53;69.00
42951;BME280;28592;51.064;17.192;2022-07-06T15:04:21;100490.52;;;26.38;65.49
42951;BME280;28592;51.064;17.192;2022-07-06T15:07:15;100497.36;;;25.63;62.36
42951;BME280;28592;51.064;17.192;2022-07-06T15:10:08;100490.05;;;24.85;56.38
42951;BME280;28592;51.064;17.192;2022-07-06T15:13:00;100489.20;;;24.84;56.23
42951;BME280;28592;51.064;17.192;2022-07-06T15:15:51;100502.50;;;23.92;56.10
42951;BME280;28592;51.064;17.192;2022-07-06T15:18:40;100500.84;;;23.91;56.07
42951;BME280;28592;51.064;17.192;2022-07-06T15:21:33;100485.44;;;24.61;56.23